CheckWX is a tool to help pilots better visualize weather data.  It is not intended as a substitute for an official pre-flight weather briefing.

04:18:45 UTC

KCOE METAR
Coeur D'alene - Pappy Boyington Field Airport
Coeur D'alene, Idaho, USA
Current

23 mins ago

KCOE 270356Z AUTO 04007KT 10SM FEW110 15/12 A2984 RMK AO2 SLP112 T01500117
Observed
Jun-27 @ 03:56 UTC
Wind
  • 040° at 7 KTS
Visibility
10 SM
Flight Rules
VFR
Cloud Levels
  • Few at 11,000' AGL
Temperature
15°C / 59°F
Dewpoint
12°C / 54°F
Humidity
82%
Altimeter
29.84" Hg
Pressure
1010.52 hPa
Previous

1 hour ago

KCOE 270256Z AUTO 08009KT 10SM FEW120 16/12 A2983 RMK AO2 RAE11 SLP111 P0000 6//// T01610122 50025
Observed
Jun-27 @ 02:56 UTC
Wind
  • 080° at 9 KTS
Visibility
10 SM
Flight Rules
VFR
Cloud Levels
  • Few at 12,000' AGL
Temperature
16°C / 61°F
Dewpoint
12°C / 54°F
Humidity
77%
Altimeter
29.83" Hg
Pressure
1010.12 hPa
Current Rain
0.01"
Previous

2 hours ago

KCOE 270156Z AUTO 29005G17KT 10SM -RA SCT022 SCT037 BKN048 16/12 A2985 RMK AO2 PK WND 23032/0109 LTG DSNT N AND NE TSB05E46RAB05 SLP121 T01560117
Observed
Jun-27 @ 01:56 UTC
Wind
  • 290° at 5 KTS
  • Gusting to 17 KTS
Visibility
10 SM
Flight Rules
VFR
Conditions
Light Rain
Cloud Levels
  • Scattered at 2,200' AGL
  • Scattered at 3,700' AGL
  • Broken at 4,800' AGL
Temperature
16°C / 61°F
Dewpoint
12°C / 54°F
Humidity
77%
Altimeter
29.85" Hg
Pressure
1010.82 hPa